createdAt,value
2023-03-05T00:01:27.357Z,0.68
2023-03-05T00:03:56.155Z,0.67
2023-03-05T00:06:27.608Z,0.64
2023-03-05T00:08:56.807Z,0.67
2023-03-05T00:11:24.343Z,0.55
2023-03-05T00:13:55.099Z,0.56
2023-03-05T00:16:26.832Z,0.49
2023-03-05T00:18:55.701Z,0.35
2023-03-05T00:21:25.690Z,0.35
2023-03-05T00:23:54.614Z,0.36
2023-03-05T00:26:25.747Z,0.33
2023-03-05T00:28:52.747Z,0.30
2023-03-05T00:31:31.995Z,0.27
2023-03-05T00:34:11.922Z,0.27
2023-03-05T00:36:45.605Z,0.14
2023-03-05T00:39:13.113Z,0.13
2023-03-05T00:41:40.427Z,0.06
2023-03-05T00:44:07.473Z,0.09
2023-03-05T00:46:34.626Z,-0.04
2023-03-05T00:49:01.365Z,0.04
2023-03-05T00:51:28.508Z,0.04
2023-03-05T00:53:55.929Z,0.07
2023-03-05T00:56:23.689Z,-0.12
2023-03-05T00:58:50.471Z,-0.12
2023-03-05T01:01:17.486Z,-0.13
2023-03-05T01:03:44.264Z,-0.16
2023-03-05T01:06:13.621Z,-0.22
2023-03-05T01:08:40.492Z,-0.19
2023-03-05T01:11:09.034Z,-0.15
2023-03-05T01:13:36.632Z,-0.09
2023-03-05T01:16:04.399Z,-0.20
2023-03-05T01:18:31.274Z,-0.14
2023-03-05T01:20:58.143Z,-0.19
2023-03-05T01:23:24.984Z,-0.11
2023-03-05T01:25:58.303Z,-0.18
2023-03-05T01:28:26.752Z,-0.15
2023-03-05T01:30:53.551Z,-0.15
2023-03-05T01:33:20.530Z,-0.13
2023-03-05T01:35:49.050Z,-0.14
2023-03-05T01:38:16.717Z,-0.13
2023-03-05T01:40:44.166Z,-0.16
2023-03-05T01:43:10.824Z,-0.09
2023-03-05T01:45:39.347Z,-0.08
2023-03-05T01:48:06.121Z,-0.11
2023-03-05T01:50:33.508Z,-0.04
2023-03-05T01:53:04.742Z,-0.04
2023-03-05T01:55:34.270Z,0.06
2023-03-05T01:58:06.253Z,0.06
2023-03-05T02:00:38.436Z,0.11
2023-03-05T02:03:08.758Z,0.11
2023-03-05T02:05:38.259Z,0.07
2023-03-05T02:08:12.325Z,0.07
2023-03-05T02:10:51.992Z,0.06
2023-03-05T02:13:25.394Z,0.12
2023-03-05T02:15:55.186Z,0.22
2023-03-05T02:18:22.908Z,0.18
2023-03-05T02:20:56.345Z,0.15
2023-03-05T02:23:27.463Z,0.15
2023-03-05T02:25:54.688Z,0.17
2023-03-05T02:28:44.136Z,0.21
2023-03-05T02:31:18.990Z,0.19
2023-03-05T02:33:46.855Z,0.10
2023-03-05T02:36:13.822Z,0.11
2023-03-05T02:38:42.450Z,0.15
2023-03-05T02:41:10.312Z,0.21
2023-03-05T02:43:37.432Z,0.21
2023-03-05T02:46:04.811Z,0.23
2023-03-05T02:48:31.938Z,0.18
2023-03-05T02:50:59.186Z,0.11
2023-03-05T02:53:26.506Z,0.25
2023-03-05T02:55:53.369Z,0.29
2023-03-05T02:58:20.110Z,0.31
2023-03-05T03:00:47.128Z,0.29
2023-03-05T03:03:14.231Z,0.30
2023-03-05T03:05:41.331Z,0.32
2023-03-05T03:08:08.271Z,0.34
2023-03-05T03:10:35.018Z,0.34
2023-03-05T03:13:01.818Z,0.31
2023-03-05T03:15:28.557Z,0.34
2023-03-05T03:17:56.029Z,0.37
2023-03-05T03:20:23.259Z,0.28
2023-03-05T03:22:49.994Z,0.06
2023-03-05T03:25:20.887Z,0.09
2023-03-05T03:27:47.654Z,0.05
2023-03-05T03:30:16.066Z,0.17
2023-03-05T03:32:43.166Z,0.27
2023-03-05T03:35:11.478Z,0.26
2023-03-05T03:37:38.449Z,0.31
2023-03-05T03:40:07.001Z,0.23
2023-03-05T03:42:34.019Z,0.28
2023-03-05T03:45:02.434Z,0.29
2023-03-05T03:47:31.067Z,0.30
2023-03-05T03:49:59.113Z,0.37
2023-03-05T03:52:26.765Z,0.36
2023-03-05T03:54:55.796Z,0.34
2023-03-05T03:57:22.867Z,0.37
2023-03-05T03:59:50.524Z,0.38
2023-03-05T04:02:17.739Z,0.41
2023-03-05T04:04:44.731Z,0.35
2023-03-05T04:07:11.542Z,0.40
2023-03-05T04:09:38.632Z,0.38
2023-03-05T04:12:05.555Z,0.37
2023-03-05T04:14:32.418Z,0.41
2023-03-05T04:16:59.148Z,0.33
2023-03-05T04:19:26.019Z,0.35
2023-03-05T04:21:52.737Z,0.41
2023-03-05T04:24:19.519Z,0.44
2023-03-05T04:26:46.242Z,0.35
2023-03-05T04:29:13.037Z,0.35
2023-03-05T04:31:39.765Z,0.41
2023-03-05T04:34:06.477Z,0.45
2023-03-05T04:36:33.351Z,0.41
2023-03-05T04:39:00.099Z,0.32
2023-03-05T04:41:26.947Z,0.13
2023-03-05T04:43:53.707Z,0.28
2023-03-05T04:46:20.489Z,0.30
2023-03-05T04:48:47.236Z,0.30
2023-03-05T04:51:13.935Z,0.42
2023-03-05T04:53:40.666Z,0.38
2023-03-05T04:56:07.952Z,0.39
2023-03-05T04:58:34.676Z,0.41
2023-03-05T05:01:04.014Z,0.42
2023-03-05T05:03:31.372Z,0.47
2023-03-05T05:06:00.818Z,0.50
2023-03-05T05:08:28.281Z,0.50
2023-03-05T05:11:00.264Z,0.53
2023-03-05T05:13:28.083Z,0.54
2023-03-05T05:15:55.218Z,0.59
2023-03-05T05:18:22.231Z,0.48
2023-03-05T05:20:49.610Z,0.46
2023-03-05T05:23:17.798Z,0.52
2023-03-05T05:25:45.516Z,0.52
2023-03-05T05:28:12.931Z,0.44
2023-03-05T05:30:39.754Z,0.58
2023-03-05T05:33:06.517Z,0.56
2023-03-05T05:35:33.409Z,0.46
2023-03-05T05:38:00.182Z,0.58
2023-03-05T05:40:26.969Z,0.40
2023-03-05T05:42:54.331Z,0.45
2023-03-05T05:45:21.072Z,0.54
2023-03-05T05:47:47.893Z,0.49
2023-03-05T05:50:15.015Z,0.54
2023-03-05T05:52:41.844Z,0.51
2023-03-05T05:55:09.570Z,0.53
2023-03-05T05:57:36.347Z,0.55
2023-03-05T06:00:08.791Z,0.49
2023-03-05T06:02:42.183Z,0.55
2023-03-05T06:05:12.918Z,0.52
2023-03-05T06:07:39.657Z,0.49
2023-03-05T06:10:07.638Z,0.47
2023-03-05T06:12:34.344Z,0.46
2023-03-05T06:15:01.182Z,0.44
2023-03-05T06:17:30.718Z,0.61
2023-03-05T06:19:58.853Z,0.54
2023-03-05T06:22:25.801Z,0.34
2023-03-05T06:24:52.546Z,0.36
2023-03-05T06:27:19.324Z,0.53
2023-03-05T06:29:46.061Z,0.43
2023-03-05T06:32:12.850Z,0.58
2023-03-05T06:34:39.662Z,0.44
2023-03-05T06:37:06.424Z,0.53
2023-03-05T06:39:33.585Z,0.44
2023-03-05T06:42:00.361Z,0.38
2023-03-05T06:44:27.179Z,0.47
2023-03-05T06:46:53.914Z,0.52
2023-03-05T06:49:20.680Z,0.50
2023-03-05T06:51:47.596Z,0.61
2023-03-05T06:54:16.778Z,0.63
2023-03-05T06:56:46.738Z,0.68
2023-03-05T06:59:15.802Z,0.65
2023-03-05T07:01:43.752Z,0.67
2023-03-05T07:04:12.557Z,0.69
2023-03-05T07:06:40.046Z,0.64
2023-03-05T07:09:10.233Z,0.70
2023-03-05T07:11:36.977Z,0.73
2023-03-05T07:14:04.451Z,0.81
2023-03-05T07:16:34.064Z,0.89
2023-03-05T07:19:03.595Z,0.89
2023-03-05T07:21:33.422Z,0.89
2023-03-05T07:24:02.114Z,0.88
2023-03-05T07:26:29.122Z,0.89
2023-03-05T07:28:57.187Z,0.96
2023-03-05T07:31:32.028Z,0.98
2023-03-05T07:34:01.225Z,0.99
2023-03-05T07:36:28.891Z,1.03
2023-03-05T07:38:55.969Z,0.94
2023-03-05T07:41:23.863Z,0.92
2023-03-05T07:43:53.586Z,0.96
2023-03-05T07:46:25.314Z,1.09
2023-03-05T07:48:54.673Z,1.05
2023-03-05T07:51:23.293Z,1.05
2023-03-05T07:53:51.951Z,0.99
2023-03-05T07:56:26.807Z,1.02
2023-03-05T07:58:53.558Z,1.07
2023-03-05T08:01:20.395Z,1.10
2023-03-05T08:03:47.180Z,1.06
2023-03-05T08:06:13.988Z,1.09
2023-03-05T08:08:40.995Z,1.17
2023-03-05T08:11:11.431Z,1.18
2023-03-05T08:13:39.431Z,1.24
2023-03-05T08:16:18.233Z,1.34
2023-03-05T08:18:46.072Z,1.36
2023-03-05T08:21:22.637Z,1.23
2023-03-05T08:23:49.762Z,1.29
2023-03-05T08:26:20.193Z,1.35
2023-03-05T08:28:47.414Z,1.42
2023-03-05T08:31:16.305Z,1.43
2023-03-05T08:33:43.712Z,1.45
2023-03-05T08:36:11.084Z,1.39
2023-03-05T08:38:37.882Z,1.55
2023-03-05T08:41:05.111Z,1.62
2023-03-05T08:43:31.976Z,1.69
2023-03-05T08:46:01.154Z,1.70
2023-03-05T08:48:28.905Z,1.81
2023-03-05T08:50:56.472Z,1.81
2023-03-05T08:53:23.924Z,1.78
2023-03-05T08:55:58.329Z,1.75
2023-03-05T08:58:25.372Z,1.78
2023-03-05T09:00:52.395Z,1.76
2023-03-05T09:03:19.553Z,1.59
2023-03-05T09:05:46.501Z,1.73
2023-03-05T09:08:14.137Z,1.87
2023-03-05T09:10:44.879Z,1.86
2023-03-05T09:18:11.230Z,2.11
2023-03-05T09:20:38.586Z,2.13
2023-03-05T09:23:05.384Z,2.14
2023-03-05T09:25:32.131Z,2.21
2023-03-05T09:27:58.878Z,2.28
2023-03-05T09:30:25.639Z,2.31
2023-03-05T09:32:52.730Z,2.35
2023-03-05T09:35:19.604Z,2.46
2023-03-05T09:37:46.970Z,2.48
2023-03-05T09:40:18.498Z,2.47
2023-03-05T09:42:57.288Z,2.56
2023-03-05T09:45:32.172Z,2.61
2023-03-05T09:48:23.822Z,2.69
2023-03-05T09:51:05.277Z,2.77
2023-03-05T09:53:33.869Z,2.74
2023-03-05T09:56:12.725Z,2.73
2023-03-05T09:58:54.640Z,2.67
2023-03-05T10:01:33.443Z,2.67
2023-03-05T10:04:12.532Z,2.68
2023-03-05T10:07:13.740Z,2.70
2023-03-05T10:09:55.540Z,2.71
2023-03-05T10:12:44.965Z,2.84
2023-03-05T10:15:16.847Z,2.81
2023-03-05T10:17:48.264Z,2.84
2023-03-05T10:20:30.715Z,2.80
2023-03-05T10:23:10.658Z,3.02
2023-03-05T10:25:58.383Z,3.06
2023-03-05T10:28:44.441Z,3.22
2023-03-05T10:31:13.980Z,3.26
2023-03-05T10:34:00.737Z,3.19
2023-03-05T10:37:17.836Z,3.12
2023-03-05T10:40:09.935Z,3.33
2023-03-05T10:42:48.401Z,3.35
2023-03-05T10:45:18.791Z,3.43
2023-03-05T10:48:00.067Z,3.43
2023-03-05T10:50:33.971Z,3.63
2023-03-05T10:53:17.652Z,3.65
2023-03-05T10:55:44.564Z,3.64
2023-03-05T10:58:14.489Z,3.76
2023-03-05T11:01:12.781Z,3.59
2023-03-05T11:04:28.501Z,3.65
2023-03-05T11:06:55.220Z,3.66
2023-03-05T11:09:32.466Z,3.80
2023-03-05T11:12:19.640Z,3.79
2023-03-05T11:15:12.282Z,3.81
2023-03-05T11:18:07.000Z,3.97
2023-03-05T11:20:35.882Z,3.97
2023-03-05T11:23:24.591Z,3.91
2023-03-05T11:26:12.655Z,3.99
2023-03-05T11:28:56.433Z,3.95
2023-03-05T11:31:27.902Z,4.13
2023-03-05T11:34:04.240Z,4.16
2023-03-05T11:36:42.215Z,4.16
2023-03-05T11:39:22.219Z,4.31
2023-03-05T11:41:53.610Z,4.41
2023-03-05T11:44:35.605Z,4.38
2023-03-05T11:47:25.032Z,4.41
2023-03-05T11:50:06.215Z,4.42
2023-03-05T11:52:48.119Z,4.58
2023-03-05T11:55:26.516Z,4.48
2023-03-05T11:58:30.453Z,4.43
2023-03-05T12:00:57.610Z,4.51
2023-03-05T12:03:37.160Z,4.52
2023-03-05T12:06:09.652Z,4.66
2023-03-05T12:08:42.834Z,4.71
2023-03-05T12:11:31.113Z,4.69
2023-03-05T12:14:22.903Z,4.72
2023-03-05T12:17:10.335Z,4.66
2023-03-05T12:20:00.756Z,4.83
2023-03-05T12:22:42.399Z,4.85
2023-03-05T12:25:35.016Z,4.93
2023-03-05T12:28:03.332Z,5.00
2023-03-05T12:30:56.523Z,5.01
2023-03-05T12:33:40.069Z,5.11
2023-03-05T12:36:21.617Z,5.21
2023-03-05T12:38:54.207Z,5.20
2023-03-05T12:41:24.826Z,5.24
2023-03-05T12:44:07.555Z,5.28
2023-03-05T12:46:43.263Z,5.35
2023-03-05T12:49:19.119Z,5.31
2023-03-05T12:51:48.428Z,5.10
2023-03-05T12:54:33.754Z,5.24
2023-03-05T12:57:04.625Z,5.25
2023-03-05T13:00:21.774Z,5.09
2023-03-05T13:02:56.273Z,5.02
2023-03-05T13:05:32.726Z,4.97
2023-03-05T13:08:16.313Z,5.16
2023-03-05T13:10:54.402Z,5.16
2023-03-05T13:13:22.054Z,5.16
2023-03-05T13:15:50.758Z,5.23
2023-03-05T13:18:36.057Z,5.27
2023-03-05T13:21:16.253Z,5.31
2023-03-05T13:23:58.358Z,5.30
2023-03-05T13:26:40.277Z,5.28
2023-03-05T13:29:10.290Z,5.32
2023-03-05T13:31:49.132Z,5.31
2023-03-05T13:34:47.310Z,5.33
2023-03-05T13:37:24.429Z,5.30
2023-03-05T13:39:57.395Z,5.35
2023-03-05T13:42:26.310Z,5.41
2023-03-05T13:44:59.014Z,5.31
2023-03-05T13:47:29.973Z,5.26
2023-03-05T13:50:05.968Z,5.17
2023-03-05T13:52:36.785Z,5.27
2023-03-05T13:55:12.934Z,5.32
2023-03-05T13:57:42.362Z,5.14
2023-03-05T14:00:36.130Z,5.28
2023-03-05T14:03:14.662Z,5.10
2023-03-05T14:05:45.568Z,5.09
2023-03-05T14:08:25.603Z,5.23
2023-03-05T14:10:54.911Z,5.15
2023-03-05T14:13:25.163Z,5.25
2023-03-05T14:16:04.166Z,5.31
2023-03-05T14:18:31.041Z,5.23
2023-03-05T14:21:08.964Z,5.24
2023-03-05T14:23:47.817Z,5.33
2023-03-05T14:26:35.359Z,5.34
2023-03-05T14:29:17.646Z,5.36
2023-03-05T14:31:52.644Z,5.30
2023-03-05T14:34:34.365Z,5.30
2023-03-05T14:37:05.516Z,5.17
2023-03-05T14:39:46.303Z,5.35
2023-03-05T14:42:50.571Z,5.26
2023-03-05T14:45:21.424Z,5.08
2023-03-05T14:47:50.781Z,5.16
2023-03-05T14:50:23.298Z,5.25
2023-03-05T14:52:54.012Z,5.20
2023-03-05T14:55:24.672Z,5.18
2023-03-05T14:57:55.408Z,4.91
2023-03-05T15:00:26.015Z,5.04
2023-03-05T15:02:53.071Z,5.17
2023-03-05T15:05:20.651Z,5.28
2023-03-05T15:07:48.540Z,5.29
2023-03-05T15:10:21.921Z,5.16
2023-03-05T15:12:50.624Z,5.21
2023-03-05T15:15:18.512Z,5.25
2023-03-05T15:17:47.997Z,5.27
2023-03-05T15:20:25.097Z,5.21
2023-03-05T15:22:52.529Z,5.14
2023-03-05T15:25:21.730Z,5.12
2023-03-05T15:27:50.925Z,5.13
2023-03-05T15:30:27.307Z,5.06
2023-03-05T15:32:55.899Z,5.02
2023-03-05T15:35:24.703Z,5.05
2023-03-05T15:37:52.672Z,5.02
2023-03-05T15:40:21.166Z,4.93
2023-03-05T15:42:48.793Z,5.08
2023-03-05T15:45:16.505Z,5.15
2023-03-05T15:47:43.549Z,5.15
2023-03-05T15:50:11.362Z,5.30
2023-03-05T15:52:38.096Z,5.24
2023-03-05T15:55:05.457Z,5.13
2023-03-05T15:57:36.625Z,5.13
2023-03-05T16:00:06.872Z,5.10
2023-03-05T16:02:33.594Z,5.13
2023-03-05T16:05:00.343Z,5.08
2023-03-05T16:07:28.387Z,5.06
2023-03-05T16:09:56.943Z,4.87
2023-03-05T16:12:29.888Z,4.99
2023-03-05T16:14:56.531Z,4.98
2023-03-05T16:17:24.265Z,5.06
2023-03-05T16:19:54.991Z,5.08
2023-03-05T16:22:21.972Z,5.10
2023-03-05T16:24:48.683Z,4.94
2023-03-05T16:27:15.421Z,4.92
2023-03-05T16:29:42.212Z,4.84
2023-03-05T16:32:09.086Z,4.67
2023-03-05T16:34:35.888Z,4.63
2023-03-05T16:37:04.691Z,4.81
2023-03-05T16:39:31.664Z,4.78
2023-03-05T16:41:58.604Z,4.78
2023-03-05T16:44:25.372Z,4.71
2023-03-05T16:46:54.052Z,4.69
2023-03-05T16:49:21.615Z,4.69
2023-03-05T16:51:48.969Z,4.54
2023-03-05T16:54:15.715Z,4.58
2023-03-05T16:56:42.508Z,4.48
2023-03-05T16:59:09.425Z,4.31
2023-03-05T17:01:36.247Z,4.28
2023-03-05T17:04:03.847Z,4.19
2023-03-05T17:06:33.248Z,4.34
2023-03-05T17:09:00.257Z,4.32
2023-03-05T17:11:27.516Z,4.34
2023-03-05T17:13:54.400Z,4.28
2023-03-05T17:16:22.117Z,4.28
2023-03-05T17:18:49.169Z,4.29
2023-03-05T17:21:17.128Z,4.22
2023-03-05T17:23:44.045Z,4.13
2023-03-05T17:26:15.141Z,4.13
2023-03-05T17:28:42.762Z,4.24
2023-03-05T17:31:10.192Z,4.22
2023-03-05T17:33:39.151Z,4.10
2023-03-05T17:36:06.535Z,4.01
2023-03-05T17:38:33.389Z,3.96
2023-03-05T17:41:00.161Z,3.91
2023-03-05T17:43:26.910Z,3.76
2023-03-05T17:45:53.726Z,3.70
2023-03-05T17:48:20.512Z,3.67
2023-03-05T17:50:47.335Z,3.68
2023-03-05T17:53:14.133Z,3.41
2023-03-05T17:55:40.941Z,3.56
2023-03-05T17:58:08.242Z,3.53
2023-03-05T18:00:36.498Z,3.59
2023-03-05T18:03:04.044Z,3.59
2023-03-05T18:05:31.389Z,3.49
2023-03-05T18:07:59.105Z,3.38
2023-03-05T18:10:27.201Z,3.45
2023-03-05T18:12:54.812Z,3.45
2023-03-05T18:15:23.767Z,3.44
2023-03-05T18:17:51.171Z,3.44
2023-03-05T18:20:36.619Z,3.45
2023-03-05T18:23:05.868Z,3.41
2023-03-05T18:25:32.782Z,3.39
2023-03-05T18:28:23.358Z,3.40
2023-03-05T18:30:50.193Z,3.08
2023-03-05T18:33:25.008Z,3.14
2023-03-05T18:35:52.804Z,3.20
2023-03-05T18:38:26.689Z,3.21
2023-03-05T18:40:55.247Z,3.19
2023-03-05T18:43:23.864Z,3.19
2023-03-05T18:45:53.441Z,3.16
2023-03-05T18:48:20.614Z,2.96
2023-03-05T18:50:51.375Z,3.02
2023-03-05T18:53:18.317Z,2.92
2023-03-05T18:55:45.106Z,2.77
2023-03-05T18:58:15.807Z,2.83
2023-03-05T19:00:45.148Z,2.89
2023-03-05T19:03:12.516Z,2.84
2023-03-05T19:05:40.642Z,2.94
2023-03-05T19:08:08.022Z,2.89
2023-03-05T19:10:35.298Z,2.66
2023-03-05T19:13:32.228Z,2.44
2023-03-05T19:16:01.015Z,2.48
2023-03-05T19:19:20.269Z,2.35
2023-03-05T19:21:50.932Z,2.43
2023-03-05T19:24:17.897Z,2.52
2023-03-05T19:26:45.871Z,2.64
2023-03-05T19:29:12.892Z,2.67
2023-03-05T19:31:39.976Z,2.67
2023-03-05T19:34:07.024Z,2.62
2023-03-05T19:36:35.569Z,2.75
2023-03-05T19:39:07.669Z,2.71
2023-03-05T19:41:35.443Z,2.70
2023-03-05T19:44:03.001Z,2.61
2023-03-05T19:46:29.858Z,2.70
2023-03-05T19:48:56.842Z,2.71
2023-03-05T19:51:26.318Z,2.71
2023-03-05T19:53:53.405Z,2.67
2023-03-05T19:56:20.704Z,2.70
2023-03-05T19:58:49.159Z,2.56
2023-03-05T20:01:15.935Z,2.57
2023-03-05T20:03:47.962Z,2.52
2023-03-05T20:06:15.019Z,2.45
2023-03-05T20:08:42.712Z,2.55
2023-03-05T20:11:16.221Z,2.50
2023-03-05T20:13:43.688Z,2.49
2023-03-05T20:16:23.762Z,2.49
2023-03-05T20:18:53.037Z,2.55
2023-03-05T20:21:29.292Z,2.55
2023-03-05T20:23:59.475Z,2.56
2023-03-05T20:26:26.687Z,2.53
2023-03-05T20:28:57.014Z,2.51
2023-03-05T20:31:26.723Z,2.45
2023-03-05T20:33:54.048Z,2.48
2023-03-05T20:36:20.908Z,2.45
2023-03-05T20:38:47.681Z,2.44
2023-03-05T20:41:18.473Z,2.44
2023-03-05T20:43:48.921Z,2.30
2023-03-05T20:46:27.324Z,2.25
2023-03-05T20:48:59.162Z,2.34
2023-03-05T20:51:31.751Z,2.30
2023-03-05T20:54:04.073Z,2.28
2023-03-05T20:56:32.981Z,2.25
2023-03-05T20:59:03.902Z,2.26
2023-03-05T21:01:33.721Z,2.34
2023-03-05T21:04:01.580Z,2.32
2023-03-05T21:06:30.230Z,2.25
2023-03-05T21:08:57.345Z,2.16
2023-03-05T21:11:24.530Z,2.21
2023-03-05T21:13:51.316Z,2.21
2023-03-05T21:16:22.697Z,2.17
2023-03-05T21:18:51.178Z,2.17
2023-03-05T21:21:18.347Z,2.16
2023-03-05T21:23:45.215Z,2.14
2023-03-05T21:26:13.396Z,2.16
2023-03-05T21:28:41.162Z,2.15
2023-03-05T21:31:18.798Z,2.17
2023-03-05T21:33:46.170Z,2.14
2023-03-05T21:36:13.132Z,2.15
2023-03-05T21:38:40.714Z,2.15
2023-03-05T21:41:07.461Z,2.06
2023-03-05T21:43:34.436Z,2.09
2023-03-05T21:46:03.337Z,2.13
2023-03-05T21:48:30.947Z,2.12
2023-03-05T21:50:58.614Z,2.10
2023-03-05T21:53:26.030Z,2.06
2023-03-05T21:56:28.183Z,2.04
2023-03-05T21:58:54.995Z,2.06
2023-03-05T22:01:22.115Z,2.02
2023-03-05T22:03:49.910Z,2.03
2023-03-05T22:06:18.801Z,1.99
2023-03-05T22:08:45.836Z,2.02
2023-03-05T22:11:15.583Z,1.99
2023-03-05T22:13:43.115Z,2.00
2023-03-05T22:16:10.405Z,1.94
2023-03-05T22:18:37.544Z,1.96
2023-03-05T22:21:05.217Z,1.95
2023-03-05T22:23:36.874Z,2.02
2023-03-05T22:26:07.740Z,2.01
2023-03-05T22:28:35.799Z,1.93
2023-03-05T22:31:02.630Z,1.95
2023-03-05T22:33:30.137Z,1.96
2023-03-05T22:35:57.056Z,1.94
2023-03-05T22:38:25.390Z,1.92
2023-03-05T22:40:53.374Z,1.93
2023-03-05T22:43:20.610Z,1.92
2023-03-05T22:45:47.534Z,1.88
2023-03-05T22:48:14.316Z,1.88
2023-03-05T22:50:44.003Z,1.90
2023-03-05T22:53:12.205Z,1.87
2023-03-05T22:55:42.295Z,1.78
2023-03-05T22:58:09.401Z,1.85
2023-03-05T23:00:36.307Z,1.85
2023-03-05T23:03:03.457Z,1.88
2023-03-05T23:05:30.238Z,1.83
2023-03-05T23:07:57.052Z,1.84
2023-03-05T23:10:27.487Z,1.83
2023-03-05T23:12:55.975Z,1.84
2023-03-05T23:15:31.884Z,1.74
2023-03-05T23:17:59.067Z,1.72
2023-03-05T23:20:32.499Z,1.77
2023-03-05T23:22:59.698Z,1.79
2023-03-05T23:25:30.463Z,1.78
2023-03-05T23:28:00.564Z,1.72
2023-03-05T23:30:45.815Z,1.74
2023-03-05T23:33:20.736Z,1.75
2023-03-05T23:35:59.823Z,1.73
2023-03-05T23:38:29.486Z,1.72
2023-03-05T23:41:01.145Z,1.66
2023-03-05T23:43:28.137Z,1.73
2023-03-05T23:45:55.267Z,1.65
2023-03-05T23:48:24.827Z,1.69
2023-03-05T23:50:51.692Z,1.63
2023-03-05T23:53:31.337Z,1.69
2023-03-05T23:55:58.081Z,1.68
2023-03-05T23:58:25.004Z,1.66
